Time;durP1;ratioP1;P1;durP2;ratioP2;P2;SDS_P1;SDS_P2;PMS_P1;PMS_P2;Temp;Humidity;BMP_temperature;BMP_pressure;BME280_temperature;BME280_humidity;BME280_pressure;Samples;Min_cycle;Max_cycle;Signal;HPM_P1;HPM_P2
2023/09/14 00:01:54;;;;;;;1999.90;999.90;;;18.10;99.90;;;;;;5095134;28;20032;-77
2023/09/14 00:04:21;;;;;;;1999.90;999.90;;;18.10;99.90;;;;;;5093439;28;20036;-78
2023/09/14 00:06:46;;;;;;;1999.90;999.90;;;18.00;99.90;;;;;;5094802;28;20558;-78
2023/09/14 00:09:12;;;;;;;1999.90;999.90;;;17.90;99.90;;;;;;5094886;28;20067;-78
2023/09/14 00:11:38;;;;;;;1999.90;999.90;;;17.80;99.90;;;;;;5093531;28;20482;-77
2023/09/14 00:14:04;;;;;;;1999.90;999.90;;;17.80;99.90;;;;;;5093484;28;20089;-77
2023/09/14 00:16:29;;;;;;;1999.90;999.90;;;17.70;99.90;;;;;;5094783;28;20028;-78
2023/09/14 00:18:55;;;;;;;1999.90;999.90;;;17.70;99.90;;;;;;5094863;28;20037;-77
2023/09/14 00:21:21;;;;;;;1999.90;999.90;;;17.60;99.90;;;;;;5094934;28;20040;-78
2023/09/14 00:23:46;;;;;;;1999.90;999.90;;;17.60;99.90;;;;;;5093446;28;20036;-77
2023/09/14 00:26:12;;;;;;;1999.90;999.90;;;17.50;99.90;;;;;;5094343;28;20083;-77
2023/09/14 00:28:37;;;;;;;1999.90;999.90;;;17.50;99.90;;;;;;5092972;28;20026;-78
2023/09/14 00:31:03;;;;;;;1999.90;999.90;;;17.30;99.90;;;;;;5094799;28;20037;-78
2023/09/14 00:33:28;;;;;;;1999.90;999.90;;;17.40;99.90;;;;;;5093046;28;20028;-77
2023/09/14 00:35:54;;;;;;;1999.90;999.90;;;17.50;99.90;;;;;;5094446;28;20081;-77
2023/09/14 00:38:19;;;;;;;1999.90;999.90;;;17.40;99.90;;;;;;5094451;28;20036;-78
2023/09/14 00:40:45;;;;;;;1999.90;999.90;;;17.40;99.90;;;;;;5094724;28;20044;-78
2023/09/14 00:43:11;;;;;;;1999.90;999.90;;;17.30;99.90;;;;;;5093107;28;20036;-77
2023/09/14 00:45:37;;;;;;;1999.90;999.90;;;17.30;99.90;;;;;;5093034;28;20044;-77
2023/09/14 00:48:02;;;;;;;1999.90;999.90;;;17.30;99.90;;;;;;5093959;28;20726;-77
2023/09/14 00:50:29;;;;;;;1999.90;999.90;;;17.20;99.90;;;;;;5097067;28;20029;-77
2023/09/14 00:53:00;;;;;;;1999.90;999.90;;;17.30;99.90;;;;;;5098027;28;20107;-77
2023/09/14 00:55:27;;;;;;;1999.90;999.90;;;17.10;99.90;;;;;;5096645;28;20036;-78
2023/09/14 00:57:53;;;;;;;1999.90;999.90;;;17.10;99.90;;;;;;5097258;28;20394;-78
2023/09/14 01:00:19;;;;;;;1999.90;999.90;;;17.00;99.90;;;;;;5098053;28;20032;-78
2023/09/14 01:02:45;;;;;;;1999.90;999.90;;;17.10;99.90;;;;;;5098108;28;20033;-77
2023/09/14 01:05:14;;;;;;;1999.90;999.90;;;17.10;99.90;;;;;;5097875;28;20046;-77
2023/09/14 01:07:40;;;;;;;1999.90;999.90;;;17.00;99.90;;;;;;5096100;28;20527;-77
2023/09/14 01:10:09;;;;;;;1999.90;999.90;;;17.10;99.90;;;;;;5097891;28;20036;-77
2023/09/14 01:12:34;;;;;;;1999.90;999.90;;;17.10;99.90;;;;;;5097765;28;20027;-77
2023/09/14 01:15:10;;;;;;;1999.90;999.90;;;17.00;99.90;;;;;;5097830;28;20032;-78
2023/09/14 01:17:55;;;;;;;1999.90;999.90;;;17.10;99.90;;;;;;5097328;28;20029;-77
2023/09/14 01:20:41;;;;;;;1999.90;999.90;;;17.20;99.90;;;;;;5097752;28;20039;-77
2023/09/14 01:23:47;;;;;;;1999.90;999.90;;;17.20;99.90;;;;;;5097761;28;20135;-77
2023/09/14 01:26:14;;;;;;;1999.90;999.90;;;17.20;99.90;;;;;;5095786;28;20037;-77
2023/09/14 01:28:40;;;;;;;1999.90;999.90;;;17.20;99.90;;;;;;5097431;28;20032;-77
2023/09/14 01:31:05;;;;;;;1999.90;999.90;;;17.10;99.90;;;;;;5097478;28;20387;-78
2023/09/14 01:33:31;;;;;;;1999.90;999.90;;;17.10;99.90;;;;;;5097490;28;20028;-77
2023/09/14 01:36:02;;;;;;;1999.90;999.90;;;17.10;99.90;;;;;;5097253;28;20118;-77
2023/09/14 01:38:29;;;;;;;1999.90;999.90;;;17.10;99.90;;;;;;5095661;28;20037;-77
2023/09/14 01:40:55;;;;;;;1999.90;999.90;;;17.00;99.90;;;;;;5097352;28;20698;-77
2023/09/14 01:43:20;;;;;;;1999.90;999.90;;;16.80;99.90;;;;;;5097280;28;20032;-77
2023/09/14 01:45:47;;;;;;;1999.90;999.90;;;16.70;99.90;;;;;;5096925;28;20036;-77
2023/09/14 01:48:17;;;;;;;1999.90;999.90;;;16.60;99.90;;;;;;5097003;28;20123;-77
2023/09/14 01:50:42;;;;;;;1999.90;999.90;;;16.40;99.90;;;;;;5096239;28;20041;-77
2023/09/14 01:53:08;;;;;;;1999.90;999.90;;;16.30;99.90;;;;;;5097143;28;20494;-78
2023/09/14 01:55:33;;;;;;;1999.90;999.90;;;16.20;99.90;;;;;;5095341;28;20028;-77
2023/09/14 01:57:59;;;;;;;1999.90;999.90;;;16.10;99.90;;;;;;5095287;28;20491;-78
2023/09/14 02:00:26;;;;;;;1999.90;999.90;;;16.00;99.90;;;;;;5096499;28;20370;-78
2023/09/14 02:02:52;;;;;;;1999.90;999.90;;;15.90;99.90;;;;;;5096434;28;20107;-78
2023/09/14 02:05:18;;;;;;;1999.90;999.90;;;15.80;99.90;;;;;;5096899;28;20033;-78
2023/09/14 02:07:43;;;;;;;1999.90;999.90;;;15.70;99.90;;;;;;5096546;28;20063;-78
2023/09/14 02:10:09;;;;;;;1999.90;999.90;;;15.60;99.90;;;;;;5096711;28;20375;-79
2023/09/14 02:12:34;;;;;;;1999.90;999.90;;;15.50;99.90;;;;;;5096702;28;20041;-78
2023/09/14 02:15:00;;;;;;;1999.90;999.90;;;15.60;99.90;;;;;;5096948;28;20032;-78
2023/09/14 02:17:25;;;;;;;1999.90;999.90;;;15.40;99.90;;;;;;5096368;28;20104;-78
2023/09/14 02:19:53;;;;;;;1999.90;999.90;;;15.40;99.90;;;;;;5096526;28;20510;-78
2023/09/14 02:22:19;;;;;;;1999.90;999.90;;;15.40;99.90;;;;;;5096655;28;20024;-78
2023/09/14 02:24:44;;;;;;;1999.90;999.90;;;15.30;99.90;;;;;;5096688;28;20040;-78
2023/09/14 02:27:11;;;;;;;1999.90;999.90;;;15.20;99.90;;;;;;5094900;28;20025;-79
2023/09/14 02:29:37;;;;;;;1999.90;999.90;;;15.10;99.90;;;;;;5096236;28;20532;-78
2023/09/14 02:32:03;;;;;;;1999.90;999.90;;;15.10;99.90;;;;;;5096212;28;20119;-78
2023/09/14 02:34:29;;;;;;;1999.90;999.90;;;15.00;99.90;;;;;;5096537;28;20040;-78
2023/09/14 02:36:55;;;;;;;1999.90;999.90;;;15.00;99.90;;;;;;5096396;28;20045;-78
2023/09/14 02:39:20;;;;;;;1999.90;999.90;;;15.00;99.90;;;;;;5096178;28;20091;-79
2023/09/14 02:41:46;;;;;;;1999.90;999.90;;;14.90;99.90;;;;;;5096483;28;20037;-78
2023/09/14 02:44:12;;;;;;;1999.90;999.90;;;15.00;99.90;;;;;;5096347;28;20033;-78
2023/09/14 02:46:37;;;;;;;1999.90;999.90;;;14.90;99.90;;;;;;5096069;28;20066;-79
2023/09/14 02:49:03;;;;;;;1999.90;999.90;;;14.90;99.90;;;;;;5095965;28;20380;-78
2023/09/14 02:51:28;;;;;;;1999.90;999.90;;;14.90;99.90;;;;;;5096022;28;20474;-78
2023/09/14 02:53:54;;;;;;;1999.90;999.90;;;14.90;99.90;;;;;;5096209;28;20378;-78
2023/09/14 02:56:20;;;;;;;1999.90;999.90;;;14.80;99.90;;;;;;5095756;28;20082;-78
2023/09/14 02:58:45;;;;;;;1999.90;999.90;;;14.80;99.90;;;;;;5095899;28;20035;-78
2023/09/14 03:01:11;;;;;;;1999.90;999.90;;;14.90;99.90;;;;;;5096097;28;20029;-78
2023/09/14 03:03:38;;;;;;;1999.90;999.90;;;14.70;99.90;;;;;;5096032;28;20493;-78
2023/09/14 03:06:04;;;;;;;1999.90;999.90;;;14.80;99.90;;;;;;5094171;28;20036;-78
2023/09/14 03:08:31;;;;;;;1999.90;999.90;;;14.70;99.90;;;;;;5094415;28;20116;-78
2023/09/14 03:10:57;;;;;;;1999.90;999.90;;;14.70;99.90;;;;;;5095944;28;20039;-78
2023/09/14 03:13:22;;;;;;;1999.90;999.90;;;14.70;99.90;;;;;;5095692;28;20482;-78
2023/09/14 03:15:55;;;;;;;1999.90;999.90;;;14.60;99.90;;;;;;5095636;28;20060;-78
2023/09/14 03:18:21;;;;;;;1999.90;999.90;;;14.70;99.90;;;;;;5095583;28;20128;-78
2023/09/14 03:20:53;;;;;;;1999.90;999.90;;;14.70;99.90;;;;;;5095677;28;20119;-78
2023/09/14 03:23:19;;;;;;;1999.90;999.90;;;14.70;99.90;;;;;;5095896;28;20029;-78
2023/09/14 03:25:45;;;;;;;1999.90;999.90;;;14.80;99.90;;;;;;5095355;28;20429;-78
2023/09/14 03:28:11;;;;;;;1999.90;999.90;;;14.90;99.90;;;;;;5095575;28;20398;-78
2023/09/14 03:30:37;;;;;;;1999.90;999.90;;;14.90;99.90;;;;;;5095581;28;20040;-78
2023/09/14 03:33:02;;;;;;;1999.90;999.90;;;15.00;99.90;;;;;;5095365;28;20494;-79
2023/09/14 03:35:28;;;;;;;1999.90;999.90;;;14.90;99.90;;;;;;5095751;28;20029;-78
2023/09/14 03:37:54;;;;;;;1999.90;999.90;;;14.90;99.90;;;;;;5093739;28;20032;-78
2023/09/14 03:40:20;;;;;;;1999.90;999.90;;;14.90;99.90;;;;;;5090780;22;20430;-77
2023/09/14 03:42:46;;;;;;;1999.90;999.90;;;14.80;99.90;;;;;;5055069;28;20033;-77
2023/09/14 03:45:11;;;;;;;1999.90;999.90;;;14.70;99.90;;;;;;5053389;28;20483;-77
2023/09/14 03:47:38;;;;;;;1999.90;999.90;;;14.60;99.90;;;;;;5054757;28;20038;-77
2023/09/14 03:50:04;;;;;;;1999.90;999.90;;;14.60;99.90;;;;;;5054721;28;20036;-77
2023/09/14 03:52:30;;;;;;;1999.90;999.90;;;14.60;99.90;;;;;;5054876;28;20041;-77
2023/09/14 03:54:56;;;;;;;1999.90;999.90;;;14.60;99.90;;;;;;5054863;28;20070;-77
2023/09/14 03:57:21;;;;;;;1999.90;999.90;;;14.60;99.90;;;;;;5052988;28;20034;-77
2023/09/14 03:59:47;;;;;;;1999.90;999.90;;;14.50;99.90;;;;;;5053050;28;20491;-77
2023/09/14 04:02:13;;;;;;;1999.90;999.90;;;14.50;99.90;;;;;;5054499;28;20072;-77
2023/09/14 04:04:42;;;;;;;1999.90;999.90;;;14.60;99.90;;;;;;5053041;28;20107;-77
2023/09/14 04:07:08;;;;;;;1999.90;999.90;;;14.60;99.90;;;;;;5054190;28;20168;-77
2023/09/14 04:09:34;;;;;;;1999.90;999.90;;;14.70;99.90;;;;;;5054462;28;20037;-77
2023/09/14 04:11:59;;;;;;;1999.90;999.90;;;14.60;99.90;;;;;;5054611;28;20037;-77
2023/09/14 04:14:25;;;;;;;1999.90;999.90;;;14.80;99.90;;;;;;5054438;28;20092;-77
2023/09/14 04:16:57;;;;;;;1999.90;999.90;;;14.70;99.90;;;;;;5052832;28;20045;-77
2023/09/14 04:19:24;;;;;;;1999.90;999.90;;;14.70;99.90;;;;;;5054480;28;20064;-77
2023/09/14 04:21:49;;;;;;;1999.90;999.90;;;14.70;99.90;;;;;;5054472;28;20036;-77
2023/09/14 04:24:15;;;;;;;1999.90;999.90;;;14.60;99.90;;;;;;5055203;28;20038;-77
2023/09/14 04:26:41;;;;;;;1999.90;999.90;;;14.80;99.90;;;;;;5056349;28;20117;-77
2023/09/14 04:29:06;;;;;;;1999.90;999.90;;;14.80;99.90;;;;;;5056240;28;20100;-77
2023/09/14 04:31:32;;;;;;;1999.90;999.90;;;14.70;99.90;;;;;;5056502;28;20046;-77
2023/09/14 04:33:57;;;;;;;1999.90;999.90;;;14.80;99.90;;;;;;5057891;28;20108;-77
2023/09/14 04:36:23;;;;;;;1999.90;999.90;;;14.80;99.90;;;;;;5056084;28;20033;-77
2023/09/14 04:38:49;;;;;;;1999.90;999.90;;;14.70;99.90;;;;;;5056002;28;20034;-77
2023/09/14 04:41:15;;;;;;;1999.90;999.90;;;14.80;99.90;;;;;;5057910;28;20508;-77
2023/09/14 04:43:40;;;;;;;1999.90;999.90;;;14.90;99.90;;;;;;5056358;28;20080;-77
2023/09/14 04:46:06;;;;;;;1999.90;999.90;;;14.90;99.90;;;;;;5057463;28;20041;-77
2023/09/14 04:48:32;;;;;;;1999.90;999.90;;;14.90;99.90;;;;;;5056302;28;20395;-77
2023/09/14 04:50:58;;;;;;;1999.90;999.90;;;14.90;99.90;;;;;;5057488;28;20091;-77
2023/09/14 04:53:25;;;;;;;1999.90;999.90;;;15.10;99.90;;;;;;5055656;28;20035;-78
2023/09/14 04:55:50;;;;;;;1999.90;999.90;;;15.10;99.90;;;;;;5051518;28;20056;-78
2023/09/14 04:58:16;;;;;;;1999.90;999.90;;;15.00;99.90;;;;;;5053267;28;20104;-77
2023/09/14 05:00:42;;;;;;;1999.90;999.90;;;15.10;99.90;;;;;;5057386;28;20041;-77
2023/09/14 05:03:07;;;;;;;1999.90;999.90;;;15.20;99.90;;;;;;5057507;28;20033;-78
2023/09/14 05:05:33;;;;;;;1999.90;999.90;;;15.10;99.90;;;;;;5057379;28;20044;-77
2023/09/14 05:07:59;;;;;;;1999.90;999.90;;;15.20;99.90;;;;;;5056912;28;20144;-77
2023/09/14 05:10:25;;;;;;;1999.90;999.90;;;15.20;99.90;;;;;;5055823;28;20120;-77
2023/09/14 05:12:51;;;;;;;1999.90;999.90;;;15.30;99.90;;;;;;5057062;28;20032;-80
2023/09/14 05:15:17;;;;;;;1999.90;999.90;;;15.30;99.90;;;;;;5057312;28;20037;-79
2023/09/14 05:17:43;;;;;;;1999.90;999.90;;;15.30;99.90;;;;;;5077043;28;20035;-79
2023/09/14 05:20:10;;;;;;;1999.90;999.90;;;15.40;99.90;;;;;;5080303;28;20036;-83
2023/09/14 05:22:37;;;;;;;1999.90;999.90;;;15.40;99.90;;;;;;5078515;28;20036;-79
2023/09/14 05:25:04;;;;;;;1999.90;999.90;;;15.40;99.90;;;;;;5077935;28;20048;-80
2023/09/14 05:27:38;;;;;;;1999.90;999.90;;;15.40;99.90;;;;;;5076212;28;20064;-79
2023/09/14 05:30:04;;;;;;;1999.90;999.90;;;15.40;99.90;;;;;;5075955;28;20478;-79
2023/09/14 05:32:30;;;;;;;1999.90;999.90;;;15.50;99.90;;;;;;5079161;28;20887;-80
2023/09/14 05:34:55;;;;;;;1999.90;999.90;;;15.50;99.90;;;;;;5064095;28;20044;-81
2023/09/14 05:37:21;;;;;;;1999.90;999.90;;;15.50;99.90;;;;;;5059858;28;20105;-83
2023/09/14 05:39:48;;;;;;;1999.90;999.90;;;15.50;99.90;;;;;;5057812;28;20375;-83
2023/09/14 05:42:13;;;;;;;1999.90;999.90;;;15.70;99.90;;;;;;5056409;28;20033;-81
2023/09/14 05:44:39;;;;;;;1999.90;999.90;;;15.60;99.90;;;;;;5056024;28;20049;-80
2023/09/14 05:47:05;;;;;;;1999.90;999.90;;;15.60;99.90;;;;;;5057710;28;20037;-80
2023/09/14 05:49:31;;;;;;;1999.90;999.90;;;15.60;99.90;;;;;;5055613;28;20038;-80
2023/09/14 05:51:58;;;;;;;1999.90;999.90;;;15.60;99.90;;;;;;5056021;28;20571;-80
2023/09/14 05:54:23;;;;;;;1999.90;999.90;;;15.60;99.90;;;;;;5055431;28;20034;-80
2023/09/14 05:56:49;;;;;;;1999.90;999.90;;;15.80;99.90;;;;;;5057147;28;20033;-81
2023/09/14 05:59:18;;;;;;;1999.90;999.90;;;15.70;99.90;;;;;;5056271;28;20091;-81
2023/09/14 06:01:43;;;;;;;1999.90;999.90;;;15.70;99.90;;;;;;5056776;28;20053;-78
2023/09/14 06:04:09;;;;;;;1999.90;999.90;;;15.80;99.90;;;;;;5056380;28;20112;-78
2023/09/14 06:06:35;;;;;;;1999.90;999.90;;;15.80;99.90;;;;;;5055516;28;20038;-77
2023/09/14 06:09:00;;;;;;;1999.90;999.90;;;15.90;99.90;;;;;;5056116;28;20033;-78
2023/09/14 06:11:30;;;;;;;1999.90;999.90;;;15.90;99.90;;;;;;5055915;28;20116;-76
2023/09/14 06:13:55;;;;;;;1999.90;999.90;;;15.90;99.90;;;;;;5055835;28;20108;-79
2023/09/14 06:16:21;;;;;;;1999.90;999.90;;;15.90;99.90;;;;;;5054348;28;20037;-77
2023/09/14 06:18:46;;;;;;;1999.90;999.90;;;16.10;99.90;;;;;;5055436;28;20037;-77
2023/09/14 06:21:12;;;;;;;1999.90;999.90;;;16.10;99.90;;;;;;5056001;28;20387;-76
2023/09/14 06:23:40;;;;;;;1999.90;999.90;;;16.20;99.90;;;;;;5055691;28;20040;-77
2023/09/14 06:26:05;;;;;;;1999.90;999.90;;;16.20;99.90;;;;;;5055571;28;20103;-77
2023/09/14 06:28:31;;;;;;;1999.90;999.90;;;16.30;99.90;;;;;;5055669;28;20037;-77
2023/09/14 06:30:58;;;;;;;1999.90;999.90;;;16.30;99.90;;;;;;5055750;28;20033;-77
2023/09/14 06:33:23;;;;;;;1999.90;999.90;;;16.40;99.90;;;;;;5054079;28;20041;-77
2023/09/14 06:35:49;;;;;;;1999.90;999.90;;;16.50;99.90;;;;;;5055494;28;20372;-77
2023/09/14 06:38:14;;;;;;;1999.90;999.90;;;16.50;99.90;;;;;;5055886;28;20045;-77
2023/09/14 06:40:40;;;;;;;1999.90;999.90;;;16.60;99.90;;;;;;5055499;28;20037;-76
2023/09/14 06:43:05;;;;;;;1999.90;999.90;;;16.60;99.90;;;;;;5055474;28;20064;-77
2023/09/14 06:45:33;;;;;;;1999.90;999.90;;;16.60;99.90;;;;;;5054121;28;20056;-78
2023/09/14 06:47:58;;;;;;;1999.90;999.90;;;16.60;99.90;;;;;;5053317;28;20060;-77
2023/09/14 06:50:24;;;;;;;1999.90;999.90;;;16.70;99.90;;;;;;5054176;28;20040;-77
2023/09/14 06:52:50;;;;;;;1999.90;999.90;;;16.90;99.90;;;;;;5055631;28;20041;-77
2023/09/14 06:55:15;;;;;;;1999.90;999.90;;;16.90;99.90;;;;;;5054444;28;20042;-78
2023/09/14 06:57:41;;;;;;;1999.90;999.90;;;17.00;99.90;;;;;;5055278;28;20041;-77
2023/09/14 07:00:13;;;;;;;1999.90;999.90;;;16.90;99.90;;;;;;5053511;28;20044;-77
2023/09/14 07:02:40;;;;;;;1999.90;999.90;;;17.00;99.90;;;;;;5057057;28;20033;-77
2023/09/14 07:05:05;;;;;;;1999.90;999.90;;;17.10;99.90;;;;;;5055097;28;20033;-78
2023/09/14 07:07:31;;;;;;;1999.90;999.90;;;17.00;99.90;;;;;;5053164;28;20034;-79
2023/09/14 07:09:57;;;;;;;1999.90;999.90;;;17.10;99.90;;;;;;5054775;28;20041;-79
2023/09/14 07:12:22;;;;;;;1999.90;999.90;;;17.10;99.90;;;;;;5054640;28;20064;-79
2023/09/14 07:14:48;;;;;;;1999.90;999.90;;;17.20;99.90;;;;;;5054915;28;20041;-78
2023/09/14 07:17:14;;;;;;;1999.90;999.90;;;17.30;99.90;;;;;;5055903;28;20092;-79
2023/09/14 07:19:39;;;;;;;1999.90;999.90;;;17.50;99.90;;;;;;5056637;28;20037;-79
2023/09/14 07:22:05;;;;;;;1999.90;999.90;;;17.40;99.90;;;;;;5057733;28;20025;-83
2023/09/14 07:24:32;;;;;;;1999.90;999.90;;;17.40;99.90;;;;;;5057717;28;20040;-79
2023/09/14 07:26:58;;;;;;;1999.90;999.90;;;17.60;99.90;;;;;;5056015;28;20033;-82
2023/09/14 07:29:24;;;;;;;1999.90;999.90;;;17.60;99.90;;;;;;5056926;28;20107;-80
2023/09/14 07:31:50;;;;;;;1999.90;999.90;;;17.50;99.90;;;;;;5057459;28;20037;-83
2023/09/14 07:34:16;;;;;;;1999.90;999.90;;;17.70;99.90;;;;;;5054075;28;20034;-81
2023/09/14 07:36:42;;;;;;;1999.90;999.90;;;18.00;99.90;;;;;;5054240;28;20057;-79
2023/09/14 07:39:08;;;;;;;1999.90;999.90;;;17.80;99.90;;;;;;5053233;28;20037;-83
2023/09/14 07:41:33;;;;;;;1999.90;999.90;;;18.10;99.90;;;;;;5054456;28;20041;-82
2023/09/14 07:43:59;;;;;;;1999.90;999.90;;;18.00;99.90;;;;;;5054115;28;20128;-80
2023/09/14 07:46:24;;;;;;;1999.90;999.90;;;18.00;99.90;;;;;;5054299;28;20041;-80
2023/09/14 07:48:50;;;;;;;1999.90;999.90;;;17.90;99.90;;;;;;5054274;28;20030;-79
2023/09/14 07:51:15;;;;;;;1999.90;999.90;;;17.80;99.90;;;;;;5053760;28;20629;-79
2023/09/14 07:53:41;;;;;;;1999.90;999.90;;;17.80;99.90;;;;;;5053845;28;20048;-78
2023/09/14 07:56:06;;;;;;;1999.90;999.90;;;17.90;99.90;;;;;;5055474;28;20041;-79
2023/09/14 07:58:32;;;;;;;1999.90;999.90;;;18.20;99.90;;;;;;5053299;28;20101;-79
2023/09/14 08:00:57;;;;;;;1999.90;999.90;;;18.30;99.90;;;;;;5051294;28;20144;-79
2023/09/14 08:03:25;;;;;;;1999.90;999.90;;;18.40;99.90;;;;;;5055135;28;20032;-79
2023/09/14 08:05:51;;;;;;;1999.90;999.90;;;18.40;99.90;;;;;;5057642;28;20037;-77
2023/09/14 08:08:17;;;;;;;1999.90;999.90;;;18.50;99.90;;;;;;5053144;28;20026;-78
2023/09/14 08:10:49;;;;;;;1999.90;999.90;;;18.60;99.90;;;;;;5051560;28;20449;-78
2023/09/14 08:13:15;;;;;;;1999.90;999.90;;;18.50;99.90;;;;;;5053881;28;20119;-78
2023/09/14 08:15:41;;;;;;;1999.90;999.90;;;18.70;99.90;;;;;;5053817;28;20088;-79
2023/09/14 08:18:06;;;;;;;1999.90;999.90;;;18.80;99.90;;;;;;5053761;28;20040;-77
2023/09/14 08:20:35;;;;;;;1999.90;999.90;;;18.90;99.90;;;;;;5054389;28;20037;-78
2023/09/14 08:23:01;;;;;;;1999.90;999.90;;;18.90;99.90;;;;;;5054047;28;20037;-78
2023/09/14 08:25:27;;;;;;;1999.90;999.90;;;19.00;99.90;;;;;;5052581;28;20037;-79
2023/09/14 08:27:52;;;;;;;1999.90;999.90;;;19.20;99.90;;;;;;5054572;28;20032;-78
2023/09/14 08:30:18;;;;;;;1999.90;999.90;;;19.20;99.90;;;;;;5054093;28;20103;-78
2023/09/14 08:32:43;;;;;;;1999.90;999.90;;;19.40;99.90;;;;;;5052447;28;20113;-79
2023/09/14 08:35:20;;;;;;;1999.90;999.90;;;19.50;99.90;;;;;;5052356;28;20520;-78
2023/09/14 08:37:46;;;;;;;1999.90;999.90;;;19.30;99.90;;;;;;5054453;28;20113;-78
2023/09/14 08:40:15;;;;;;;1999.90;999.90;;;19.30;99.90;;;;;;5050648;28;20042;-79
2023/09/14 08:42:43;;;;;;;1999.90;999.90;;;19.50;99.90;;;;;;5051193;28;20120;-78
2023/09/14 08:45:12;;;;;;;1999.90;999.90;;;19.50;99.90;;;;;;5052117;28;20037;-78
2023/09/14 08:47:45;;;;;;;1999.90;999.90;;;19.70;99.90;;;;;;5050913;28;20034;-79
2023/09/14 08:50:13;;;;;;;1999.90;999.90;;;19.50;99.90;;;;;;5050049;28;20096;-79
2023/09/14 08:52:40;;;;;;;1999.90;999.90;;;19.40;99.90;;;;;;5054991;28;20040;-79
2023/09/14 08:55:08;;;;;;;1999.90;999.90;;;19.30;99.90;;;;;;5066478;28;20176;-79
2023/09/14 08:57:36;;;;;;;1999.90;999.90;;;19.50;99.90;;;;;;5051269;28;20060;-79
2023/09/14 09:00:03;;;;;;;1999.90;999.90;;;19.70;99.90;;;;;;5052640;28;20638;-79
2023/09/14 09:02:32;;;;;;;1999.90;999.90;;;19.60;99.90;;;;;;5052645;28;20038;-79
2023/09/14 09:04:58;;;;;;;1999.90;999.90;;;19.80;99.90;;;;;;5050768;28;20071;-79
2023/09/14 09:07:24;;;;;;;1999.90;999.90;;;20.00;99.90;;;;;;5052486;28;20033;-79
2023/09/14 09:09:50;;;;;;;1999.90;999.90;;;20.20;99.90;;;;;;5052800;28;20503;-79
2023/09/14 09:12:17;;;;;;;1999.90;999.90;;;20.20;99.90;;;;;;5057924;28;20048;-79
2023/09/14 09:14:45;;;;;;;1999.90;999.90;;;20.70;99.90;;;;;;5058075;28;20025;-79
2023/09/14 09:17:11;;;;;;;1999.90;999.90;;;20.60;99.90;;;;;;5059561;28;20029;-79
2023/09/14 09:19:47;;;;;;;1999.90;999.90;;;20.50;99.90;;;;;;5058209;28;20380;-78
2023/09/14 09:22:14;;;;;;;1999.90;999.90;;;20.40;99.90;;;;;;5056969;28;20034;-78
2023/09/14 09:24:40;;;;;;;1999.90;999.90;;;20.50;99.90;;;;;;5056954;28;20038;-79
2023/09/14 09:27:24;;;;;;;1999.90;999.90;;;20.40;99.90;;;;;;5061538;28;20094;-79
2023/09/14 09:29:51;;;;;;;1999.90;999.90;;;20.20;99.90;;;;;;5059435;28;20430;-79
2023/09/14 09:32:22;;;;;;;1999.90;999.90;;;20.20;99.90;;;;;;5062854;28;20040;-78
2023/09/14 09:34:48;;;;;;;1999.90;999.90;;;20.00;99.90;;;;;;5059801;28;20037;-78
2023/09/14 09:37:14;;;;;;;1999.90;999.90;;;20.30;99.90;;;;;;5057612;28;20071;-77
2023/09/14 09:39:41;;;;;;;1999.90;999.90;;;20.80;99.90;;;;;;5061160;28;20037;-78
2023/09/14 09:42:08;;;;;;;1999.90;999.90;;;20.50;99.90;;;;;;5064180;28;20045;-78
2023/09/14 09:44:34;;;;;;;1999.90;999.90;;;20.80;99.90;;;;;;5061970;28;20049;-78
2023/09/14 09:47:00;;;;;;;1999.90;999.90;;;21.10;99.90;;;;;;5058336;28;20048;-78
2023/09/14 09:49:29;;;;;;;1999.90;999.90;;;21.10;99.90;;;;;;5057142;28;20033;-78
2023/09/14 09:51:55;;;;;;;1999.90;999.90;;;21.40;99.90;;;;;;5059168;28;20037;-78
2023/09/14 09:54:24;;;;;;;1999.90;999.90;;;21.20;99.90;;;;;;5064481;28;20029;-79
2023/09/14 09:56:51;;;;;;;1999.90;999.90;;;21.20;99.90;;;;;;5055345;28;20040;-77
2023/09/14 09:59:17;;;;;;;1999.90;999.90;;;21.00;99.90;;;;;;5055587;28;20037;-77
2023/09/14 10:01:47;;;;;;;1999.90;999.90;;;20.80;99.90;;;;;;5059553;28;20477;-78
2023/09/14 10:04:15;;;;;;;1999.90;999.90;;;20.70;99.90;;;;;;5055694;28;20065;-77
2023/09/14 10:06:41;;;;;;;1999.90;999.90;;;20.70;99.90;;;;;;5056440;28;20034;-78
2023/09/14 10:09:08;;;;;;;1999.90;999.90;;;20.60;99.90;;;;;;5075788;28;20163;-77
2023/09/14 10:11:35;;;;;;;1999.90;999.90;;;20.60;99.90;;;;;;5056586;28;20503;-77
2023/09/14 10:14:02;;;;;;;1999.90;999.90;;;20.40;99.90;;;;;;5059085;28;20499;-79
2023/09/14 10:16:30;;;;;;;1999.90;999.90;;;20.70;99.90;;;;;;5068172;28;20037;-79
2023/09/14 10:18:57;;;;;;;1999.90;999.90;;;21.30;99.90;;;;;;5056923;28;20131;-78
2023/09/14 10:21:25;;;;;;;1999.90;999.90;;;21.80;99.90;;;;;;5053394;28;20029;-78
2023/09/14 10:23:52;;;;;;;1999.90;999.90;;;22.20;99.90;;;;;;5059994;28;20030;-78
2023/09/14 10:26:18;;;;;;;1999.90;999.90;;;22.20;99.90;;;;;;5060165;28;20128;-78
2023/09/14 10:28:45;;;;;;;1999.90;999.90;;;22.50;99.90;;;;;;5054824;28;20042;-80
2023/09/14 10:31:13;;;;;;;1999.90;999.90;;;22.50;99.90;;;;;;5054896;28;20033;-79
2023/09/14 10:33:45;;;;;;;1999.90;999.90;;;22.10;99.90;;;;;;5055888;28;20045;-80
2023/09/14 10:36:13;;;;;;;1999.90;999.90;;;21.90;99.90;;;;;;5054715;28;20048;-78
2023/09/14 10:38:43;;;;;;;1999.90;999.90;;;22.40;99.90;;;;;;5054195;28;20068;-78
2023/09/14 10:41:09;;;;;;;1999.90;999.90;;;22.30;99.90;;;;;;5055659;28;20109;-78
2023/09/14 10:43:34;;;;;;;1999.90;999.90;;;22.10;99.90;;;;;;5053367;28;20124;-79
2023/09/14 10:46:02;;;;;;;1999.90;999.90;;;22.00;99.90;;;;;;5054546;28;20485;-79
2023/09/14 10:48:29;;;;;;;1999.90;999.90;;;22.20;99.90;;;;;;5057728;28;20037;-76
2023/09/14 10:51:00;;;;;;;1999.90;999.90;;;22.40;99.90;;;;;;5054961;28;20606;-76
2023/09/14 10:53:27;;;;;;;1999.90;999.90;;;22.40;99.90;;;;;;5059253;28;20029;-76
2023/09/14 10:55:53;;;;;;;1999.90;999.90;;;22.40;99.90;;;;;;5061349;28;20040;-78
2023/09/14 10:58:19;;;;;;;1999.90;999.90;;;22.40;99.90;;;;;;5054915;28;20045;-77
2023/09/14 11:00:44;;;;;;;1999.90;999.90;;;22.30;99.90;;;;;;5052818;28;20051;-78
2023/09/14 11:03:10;;;;;;;1999.90;999.90;;;22.30;99.90;;;;;;5073458;28;20087;-77
2023/09/14 11:05:41;;;;;;;1999.90;999.90;;;22.40;99.90;;;;;;5062682;28;20072;-77
2023/09/14 11:08:07;;;;;;;1999.90;999.90;;;22.60;99.90;;;;;;5056215;28;20038;-76
2023/09/14 11:10:39;;;;;;;1999.90;999.90;;;22.80;99.90;;;;;;5055805;28;20037;-76
2023/09/14 11:13:24;;;;;;;1999.90;999.90;;;22.90;99.90;;;;;;5055329;28;20475;-76
2023/09/14 11:16:17;;;;;;;1999.90;999.90;;;22.90;99.90;;;;;;5053554;28;20475;-76
2023/09/14 11:18:43;;;;;;;1999.90;999.90;;;22.80;99.90;;;;;;5054709;28;20475;-77
2023/09/14 11:21:31;;;;;;;1999.90;999.90;;;23.00;99.90;;;;;;5071985;28;20041;-77
2023/09/14 11:23:58;;;;;;;1999.90;999.90;;;22.80;99.90;;;;;;5048981;28;20092;-77
2023/09/14 11:26:31;;;;;;;1999.90;999.90;;;22.50;99.90;;;;;;5062778;28;20124;-77
2023/09/14 11:28:58;;;;;;;1999.90;999.90;;;22.60;99.90;;;;;;5057685;28;20037;-79
2023/09/14 11:31:31;;;;;;;1999.90;999.90;;;22.70;99.90;;;;;;5061129;28;20045;-79
2023/09/14 11:33:57;;;;;;;1999.90;999.90;;;22.90;99.20;;;;;;5043225;28;20115;-78
2023/09/14 11:36:27;;;;;;;1999.90;999.90;;;23.20;99.80;;;;;;5052166;28;20041;-78
2023/09/14 11:38:53;;;;;;;1999.90;999.90;;;23.20;98.30;;;;;;5052235;28;20419;-79
2023/09/14 11:41:41;;;;;;;1999.90;999.90;;;23.40;98.40;;;;;;5054760;28;20045;-79
2023/09/14 11:44:07;;;;;;;1999.90;999.90;;;23.60;97.60;;;;;;5053260;28;20053;-78
2023/09/14 11:46:35;;;;;;;1999.90;999.90;;;23.80;98.30;;;;;;5054005;28;20061;-79
2023/09/14 11:49:02;;;;;;;1999.90;999.90;;;24.00;98.20;;;;;;5052846;28;20035;-78
2023/09/14 11:51:28;;;;;;;1999.90;999.90;;;24.10;97.90;;;;;;5058799;28;20422;-79
2023/09/14 11:53:59;;;;;;;1999.90;999.90;;;24.20;97.80;;;;;;5054908;28;20041;-77
2023/09/14 11:56:35;;;;;;;1999.90;999.90;;;24.40;96.20;;;;;;5052653;28;20064;-80
2023/09/14 11:59:02;;;;;;;1999.90;999.90;;;24.50;96.00;;;;;;5053652;28;20033;-78